Wetterdaten der Wetterstation 31177 Harsum

Letzte Wetterlage 20.11.2014 23:24
Wetterdiagramm
Tabellarische Darstellung
Datum Temperatur Windchill Feuchte Luftdruck Windrichtung Windstärke Niederschlag
20.11.2014 23:24 5,7 °C 5,7 °C 93 % 1025,1 hPa 248 0.0 0,00 mm
20.11.2014 23:04 5,7 °C 5,7 °C 93 % 1025,1 hPa 248 0.0 0,00 mm
20.11.2014 22:43 5,7 °C 5,7 °C 92 % 1025,1 hPa 135 0.0 0,00 mm
20.11.2014 22:22 5,7 °C 5,7 °C 92 % 1026,1 hPa 135 0.0 0,00 mm
20.11.2014 22:01 5,7 °C 5,7 °C 92 % 1026,1 hPa 135 0.0 0,00 mm
20.11.2014 21:41 5,7 °C 5,7 °C 92 % 1027,1 hPa 135 0.0 0,00 mm
20.11.2014 21:20 5,7 °C 5,7 °C 92 % 1026,1 hPa 135 0.0 0,00 mm
20.11.2014 20:59 5,7 °C 5,7 °C 92 % 1026,1 hPa 135 0.0 0,00 mm
20.11.2014 20:39 5,8 °C 5,8 °C 91 % 1026,1 hPa 135 0.0 0,00 mm
20.11.2014 20:18 5,8 °C 5,8 °C 92 % 1026,1 hPa 135 0.0 0,00 mm
20.11.2014 19:57 5,8 °C 5,8 °C 91 % 1026,1 hPa 135 0.0 0,00 mm
20.11.2014 19:37 5,8 °C 5,8 °C 91 % 1026,1 hPa 135 0.0 0,00 mm
20.11.2014 19:16 5,8 °C 5,8 °C 90 % 1025,1 hPa 135 0.0 0,00 mm
20.11.2014 18:55 5,9 °C 5,9 °C 90 % 1025,1 hPa 135 0.0 0,00 mm
20.11.2014 18:34 5,9 °C 5,9 °C 89 % 1025,1 hPa 135 0.0 0,00 mm
20.11.2014 18:14 6,0 °C 6,0 °C 88 % 1024,1 hPa 135 0.0 0,00 mm
20.11.2014 17:53 5,9 °C 5,9 °C 89 % 1025,1 hPa 90 0.0 0,00 mm
20.11.2014 17:32 5,8 °C 5,8 °C 88 % 1025,1 hPa 90 0.0 0,00 mm
20.11.2014 17:12 5,7 °C 5,7 °C 87 % 1025,1 hPa 68 0.0 0,00 mm
20.11.2014 16:51 5,7 °C 5,7 °C 86 % 1025,1 hPa 68 0.0 0,00 mm
20.11.2014 16:30 6,1 °C 6,1 °C 84 % 1025,1 hPa 68 0.1 0,00 mm
20.11.2014 16:10 6,6 °C 6,6 °C 83 % 1025,1 hPa 45 0.0 0,00 mm
20.11.2014 15:49 7,1 °C 7,1 °C 81 % 1025,1 hPa 90 0.1 0,00 mm
20.11.2014 15:28 7,6 °C 7,6 °C 79 % 1025,1 hPa 45 0.1 0,00 mm
20.11.2014 15:07 8,3 °C 8,3 °C 78 % 1025,1 hPa 68 0.0 0,00 mm
Empfehlen Sie wetter.com
| Mehr
Neue Wetterwarnung

Neue Niederschlagsmeldung
Neue Meldung
Regen Liveticker
    sehr starker Regen/Gewitter
    starker Regen/Gewitter
    mäßiger bis starker Regen
    mäßiger Regen
    leichter bis mäßiger Regen
    kein Regen